sensor_id;sensor_type;location;lat;lon;timestamp;pressure;altitude;pressure_sealevel;temperature;humidity
36598;BME280;22607;49.550;11.940;2022-11-02T00:00:41;97428.88;;;9.88;100.00
36598;BME280;22607;49.550;11.940;2022-11-02T00:03:08;97428.03;;;9.88;100.00
36598;BME280;22607;49.550;11.940;2022-11-02T00:05:34;97433.28;;;9.88;100.00
36598;BME280;22607;49.550;11.940;2022-11-02T00:08:01;97431.13;;;9.83;100.00
36598;BME280;22607;49.550;11.940;2022-11-02T00:10:27;97430.47;;;9.44;100.00
36598;BME280;22607;49.550;11.940;2022-11-02T00:12:55;97442.31;;;9.49;100.00
36598;BME280;22607;49.550;11.940;2022-11-02T00:15:21;97433.69;;;9.75;100.00
36598;BME280;22607;49.550;11.940;2022-11-02T00:17:49;97435.25;;;9.67;100.00
36598;BME280;22607;49.550;11.940;2022-11-02T00:20:18;97438.19;;;9.64;100.00
36598;BME280;22607;49.550;11.940;2022-11-02T00:22:46;97440.59;;;9.39;100.00
36598;BME280;22607;49.550;11.940;2022-11-02T00:25:13;97438.34;;;9.44;100.00
36598;BME280;22607;49.550;11.940;2022-11-02T00:27:42;97446.56;;;9.50;100.00
36598;BME280;22607;49.550;11.940;2022-11-02T00:30:09;97445.16;;;9.74;100.00
36598;BME280;22607;49.550;11.940;2022-11-02T00:32:36;97445.19;;;9.82;100.00
36598;BME280;22607;49.550;11.940;2022-11-02T00:35:02;97448.72;;;9.91;100.00
36598;BME280;22607;49.550;11.940;2022-11-02T00:37:29;97446.97;;;9.55;100.00
36598;BME280;22607;49.550;11.940;2022-11-02T00:39:55;97441.63;;;9.83;100.00
36598;BME280;22607;49.550;11.940;2022-11-02T00:42:22;97444.91;;;9.85;100.00
36598;BME280;22607;49.550;11.940;2022-11-02T00:44:48;97450.50;;;9.90;100.00
36598;BME280;22607;49.550;11.940;2022-11-02T00:47:14;97441.91;;;9.62;100.00
36598;BME280;22607;49.550;11.940;2022-11-02T00:49:41;97439.72;;;9.75;100.00
36598;BME280;22607;49.550;11.940;2022-11-02T00:52:07;97433.75;;;9.83;100.00
36598;BME280;22607;49.550;11.940;2022-11-02T00:54:34;97442.66;;;9.90;100.00
36598;BME280;22607;49.550;11.940;2022-11-02T00:57:00;97454.22;;;9.61;100.00
36598;BME280;22607;49.550;11.940;2022-11-02T00:59:26;97448.69;;;9.64;100.00
36598;BME280;22607;49.550;11.940;2022-11-02T01:01:53;97454.06;;;9.44;100.00
36598;BME280;22607;49.550;11.940;2022-11-02T01:04:20;97443.81;;;9.69;100.00
36598;BME280;22607;49.550;11.940;2022-11-02T01:06:46;97444.75;;;9.68;100.00
36598;BME280;22607;49.550;11.940;2022-11-02T01:09:13;97448.16;;;9.61;100.00
36598;BME280;22607;49.550;11.940;2022-11-02T01:11:40;97441.84;;;9.71;100.00
36598;BME280;22607;49.550;11.940;2022-11-02T01:14:07;97447.09;;;9.71;100.00
36598;BME280;22607;49.550;11.940;2022-11-02T01:16:34;97441.66;;;9.47;100.00
36598;BME280;22607;49.550;11.940;2022-11-02T01:19:01;97450.09;;;9.40;100.00
36598;BME280;22607;49.550;11.940;2022-11-02T01:21:27;97441.19;;;9.51;100.00
36598;BME280;22607;49.550;11.940;2022-11-02T01:23:54;97442.44;;;9.47;100.00
36598;BME280;22607;49.550;11.940;2022-11-02T01:26:20;97443.38;;;9.56;100.00
36598;BME280;22607;49.550;11.940;2022-11-02T01:28:47;97453.16;;;9.54;100.00
36598;BME280;22607;49.550;11.940;2022-11-02T01:31:13;97447.34;;;9.60;100.00
36598;BME280;22607;49.550;11.940;2022-11-02T01:33:43;97430.53;;;9.53;100.00
36598;BME280;22607;49.550;11.940;2022-11-02T01:36:11;97443.66;;;9.35;100.00
36598;BME280;22607;49.550;11.940;2022-11-02T01:38:39;97448.44;;;9.39;100.00
36598;BME280;22607;49.550;11.940;2022-11-02T01:41:05;97432.19;;;9.17;100.00
36598;BME280;22607;49.550;11.940;2022-11-02T01:43:34;97446.16;;;9.08;100.00
36598;BME280;22607;49.550;11.940;2022-11-02T01:46:04;97448.00;;;9.26;100.00
36598;BME280;22607;49.550;11.940;2022-11-02T01:48:36;97428.84;;;9.43;100.00
36598;BME280;22607;49.550;11.940;2022-11-02T01:51:05;97438.13;;;9.56;100.00
36598;BME280;22607;49.550;11.940;2022-11-02T01:53:33;97446.06;;;9.46;100.00
36598;BME280;22607;49.550;11.940;2022-11-02T01:56:00;97440.44;;;9.59;100.00
36598;BME280;22607;49.550;11.940;2022-11-02T01:58:27;97443.13;;;9.67;100.00
36598;BME280;22607;49.550;11.940;2022-11-02T02:00:53;97443.75;;;9.61;100.00
36598;BME280;22607;49.550;11.940;2022-11-02T02:03:20;97445.66;;;9.59;100.00
36598;BME280;22607;49.550;11.940;2022-11-02T02:05:48;97440.06;;;9.54;100.00
36598;BME280;22607;49.550;11.940;2022-11-02T02:08:16;97446.00;;;9.56;100.00
36598;BME280;22607;49.550;11.940;2022-11-02T02:10:43;97440.00;;;9.45;100.00
36598;BME280;22607;49.550;11.940;2022-11-02T02:13:10;97439.22;;;9.35;100.00
36598;BME280;22607;49.550;11.940;2022-11-02T02:15:51;97433.56;;;9.40;100.00
36598;BME280;22607;49.550;11.940;2022-11-02T02:18:21;97435.94;;;9.33;100.00
36598;BME280;22607;49.550;11.940;2022-11-02T02:21:04;97441.28;;;9.41;100.00
36598;BME280;22607;49.550;11.940;2022-11-02T02:23:58;97446.53;;;9.41;100.00
36598;BME280;22607;49.550;11.940;2022-11-02T02:29:02;97444.06;;;8.93;100.00
36598;BME280;22607;49.550;11.940;2022-11-02T02:34:08;97441.16;;;8.97;100.00
36598;BME280;22607;49.550;11.940;2022-11-02T02:36:46;97444.44;;;8.99;100.00
36598;BME280;22607;49.550;11.940;2022-11-02T02:39:16;97445.03;;;8.92;100.00
36598;BME280;22607;49.550;11.940;2022-11-02T02:41:46;97448.72;;;8.72;100.00
36598;BME280;22607;49.550;11.940;2022-11-02T02:44:18;97447.47;;;9.04;100.00
36598;BME280;22607;49.550;11.940;2022-11-02T02:46:51;97447.09;;;9.17;100.00
36598;BME280;22607;49.550;11.940;2022-11-02T02:49:25;97442.22;;;9.04;100.00
36598;BME280;22607;49.550;11.940;2022-11-02T02:51:54;97438.78;;;9.22;100.00
36598;BME280;22607;49.550;11.940;2022-11-02T02:54:24;97445.41;;;8.98;100.00
36598;BME280;22607;49.550;11.940;2022-11-02T02:56:52;97441.09;;;9.06;100.00
36598;BME280;22607;49.550;11.940;2022-11-02T02:59:24;97433.28;;;8.97;100.00
36598;BME280;22607;49.550;11.940;2022-11-02T03:01:51;97432.03;;;9.01;100.00
36598;BME280;22607;49.550;11.940;2022-11-02T03:04:19;97432.94;;;8.82;100.00
36598;BME280;22607;49.550;11.940;2022-11-02T03:06:47;97440.16;;;8.98;100.00
36598;BME280;22607;49.550;11.940;2022-11-02T03:17:13;97425.38;;;9.25;100.00
36598;BME280;22607;49.550;11.940;2022-11-02T03:19:52;97426.66;;;9.21;100.00
36598;BME280;22607;49.550;11.940;2022-11-02T03:22:32;97435.50;;;9.19;100.00
36598;BME280;22607;49.550;11.940;2022-11-02T03:30:06;97425.22;;;9.08;100.00
36598;BME280;22607;49.550;11.940;2022-11-02T03:32:36;97430.16;;;9.11;100.00
36598;BME280;22607;49.550;11.940;2022-11-02T03:35:05;97432.63;;;8.95;100.00
36598;BME280;22607;49.550;11.940;2022-11-02T03:37:37;97424.03;;;9.02;100.00
36598;BME280;22607;49.550;11.940;2022-11-02T03:40:12;97428.19;;;8.95;100.00
36598;BME280;22607;49.550;11.940;2022-11-02T03:42:39;97426.63;;;9.02;100.00
36598;BME280;22607;49.550;11.940;2022-11-02T03:45:14;97431.53;;;8.87;100.00
36598;BME280;22607;49.550;11.940;2022-11-02T03:47:44;97431.31;;;8.99;100.00
36598;BME280;22607;49.550;11.940;2022-11-02T03:50:12;97436.50;;;8.90;100.00
36598;BME280;22607;49.550;11.940;2022-11-02T03:52:43;97438.75;;;8.85;100.00
36598;BME280;22607;49.550;11.940;2022-11-02T03:55:12;97431.31;;;8.99;100.00
36598;BME280;22607;49.550;11.940;2022-11-02T03:57:48;97422.38;;;9.01;100.00
36598;BME280;22607;49.550;11.940;2022-11-02T04:00:16;97432.41;;;9.06;100.00
36598;BME280;22607;49.550;11.940;2022-11-02T04:02:44;97438.91;;;9.02;100.00
36598;BME280;22607;49.550;11.940;2022-11-02T04:05:12;97442.88;;;8.88;100.00
36598;BME280;22607;49.550;11.940;2022-11-02T04:07:41;97439.66;;;8.66;100.00
36598;BME280;22607;49.550;11.940;2022-11-02T04:10:27;97443.09;;;8.66;100.00
36598;BME280;22607;49.550;11.940;2022-11-02T04:12:54;97439.84;;;8.83;100.00
36598;BME280;22607;49.550;11.940;2022-11-02T04:15:39;97454.88;;;8.52;100.00
36598;BME280;22607;49.550;11.940;2022-11-02T04:18:05;97449.25;;;8.75;100.00
36598;BME280;22607;49.550;11.940;2022-11-02T04:20:50;97459.69;;;8.57;100.00
36598;BME280;22607;49.550;11.940;2022-11-02T04:23:17;97455.94;;;8.50;100.00
36598;BME280;22607;49.550;11.940;2022-11-02T04:26:03;97451.25;;;8.63;100.00
36598;BME280;22607;49.550;11.940;2022-11-02T04:28:29;97458.19;;;8.55;100.00
36598;BME280;22607;49.550;11.940;2022-11-02T04:30:58;97458.66;;;8.68;100.00
36598;BME280;22607;49.550;11.940;2022-11-02T04:33:26;97462.63;;;8.72;100.00
36598;BME280;22607;49.550;11.940;2022-11-02T04:36:03;97452.47;;;8.69;100.00
36598;BME280;22607;49.550;11.940;2022-11-02T04:38:30;97467.22;;;8.60;100.00
36598;BME280;22607;49.550;11.940;2022-11-02T04:41:10;97462.97;;;8.59;100.00
36598;BME280;22607;49.550;11.940;2022-11-02T04:43:55;97462.56;;;8.54;100.00
36598;BME280;22607;49.550;11.940;2022-11-02T04:46:22;97465.31;;;8.43;100.00
36598;BME280;22607;49.550;11.940;2022-11-02T04:48:49;97467.00;;;8.44;100.00
36598;BME280;22607;49.550;11.940;2022-11-02T04:51:16;97465.63;;;8.39;100.00
36598;BME280;22607;49.550;11.940;2022-11-02T04:53:42;97466.69;;;8.47;100.00
36598;BME280;22607;49.550;11.940;2022-11-02T04:56:09;97462.63;;;8.34;100.00
36598;BME280;22607;49.550;11.940;2022-11-02T04:58:35;97460.81;;;8.35;100.00
36598;BME280;22607;49.550;11.940;2022-11-02T05:01:07;97461.91;;;8.32;100.00
36598;BME280;22607;49.550;11.940;2022-11-02T05:03:34;97464.03;;;8.19;100.00
36598;BME280;22607;49.550;11.940;2022-11-02T05:06:01;97463.06;;;8.20;100.00
36598;BME280;22607;49.550;11.940;2022-11-02T05:08:28;97478.22;;;8.16;100.00
36598;BME280;22607;49.550;11.940;2022-11-02T05:10:54;97478.53;;;8.03;100.00
36598;BME280;22607;49.550;11.940;2022-11-02T05:13:22;97471.25;;;7.97;100.00
36598;BME280;22607;49.550;11.940;2022-11-02T05:15:48;97473.41;;;8.11;100.00
36598;BME280;22607;49.550;11.940;2022-11-02T05:18:15;97472.13;;;8.25;100.00
36598;BME280;22607;49.550;11.940;2022-11-02T05:20:48;97460.41;;;8.30;100.00
36598;BME280;22607;49.550;11.940;2022-11-02T05:23:15;97461.25;;;8.30;100.00
36598;BME280;22607;49.550;11.940;2022-11-02T05:25:42;97476.44;;;8.17;100.00
36598;BME280;22607;49.550;11.940;2022-11-02T05:28:08;97477.66;;;8.22;100.00
36598;BME280;22607;49.550;11.940;2022-11-02T05:30:34;97483.88;;;8.11;100.00
36598;BME280;22607;49.550;11.940;2022-11-02T05:33:01;97483.88;;;8.11;100.00
36598;BME280;22607;49.550;11.940;2022-11-02T05:35:28;97480.81;;;8.16;100.00
36598;BME280;22607;49.550;11.940;2022-11-02T05:37:54;97477.63;;;8.32;100.00
36598;BME280;22607;49.550;11.940;2022-11-02T05:40:21;97487.44;;;8.30;100.00
36598;BME280;22607;49.550;11.940;2022-11-02T05:42:48;97492.94;;;8.27;100.00
36598;BME280;22607;49.550;11.940;2022-11-02T05:45:15;97497.91;;;8.20;100.00
36598;BME280;22607;49.550;11.940;2022-11-02T05:47:50;97498.34;;;8.16;100.00
36598;BME280;22607;49.550;11.940;2022-11-02T05:50:17;97501.06;;;8.24;100.00
36598;BME280;22607;49.550;11.940;2022-11-02T05:52:43;97500.13;;;8.15;100.00
36598;BME280;22607;49.550;11.940;2022-11-02T05:55:10;97501.75;;;8.16;100.00
36598;BME280;22607;49.550;11.940;2022-11-02T05:57:36;97504.28;;;8.08;100.00
36598;BME280;22607;49.550;11.940;2022-11-02T06:00:03;97502.75;;;7.95;100.00
36598;BME280;22607;49.550;11.940;2022-11-02T06:02:30;97499.88;;;7.98;100.00
36598;BME280;22607;49.550;11.940;2022-11-02T06:04:56;97499.59;;;8.01;100.00
36598;BME280;22607;49.550;11.940;2022-11-02T06:07:23;97500.56;;;7.91;100.00
36598;BME280;22607;49.550;11.940;2022-11-02T06:09:49;97505.66;;;7.92;100.00
36598;BME280;22607;49.550;11.940;2022-11-02T06:12:15;97507.03;;;7.96;100.00
36598;BME280;22607;49.550;11.940;2022-11-02T06:14:42;97505.13;;;7.98;100.00
36598;BME280;22607;49.550;11.940;2022-11-02T06:17:08;97503.31;;;7.99;100.00
36598;BME280;22607;49.550;11.940;2022-11-02T06:19:35;97503.47;;;7.87;100.00
36598;BME280;22607;49.550;11.940;2022-11-02T06:22:01;97514.75;;;7.78;100.00
36598;BME280;22607;49.550;11.940;2022-11-02T06:24:27;97518.31;;;7.77;100.00
36598;BME280;22607;49.550;11.940;2022-11-02T06:26:54;97508.56;;;7.79;100.00
36598;BME280;22607;49.550;11.940;2022-11-02T06:29:20;97516.66;;;7.76;100.00
36598;BME280;22607;49.550;11.940;2022-11-02T06:31:47;97515.69;;;7.77;100.00
36598;BME280;22607;49.550;11.940;2022-11-02T06:34:13;97522.44;;;7.70;100.00
36598;BME280;22607;49.550;11.940;2022-11-02T06:36:39;97534.84;;;7.87;100.00
36598;BME280;22607;49.550;11.940;2022-11-02T06:39:06;97527.81;;;7.98;100.00
36598;BME280;22607;49.550;11.940;2022-11-02T06:41:32;97526.31;;;7.95;100.00
36598;BME280;22607;49.550;11.940;2022-11-02T06:43:58;97528.50;;;7.90;100.00
36598;BME280;22607;49.550;11.940;2022-11-02T06:46:25;97540.06;;;8.07;100.00
36598;BME280;22607;49.550;11.940;2022-11-02T06:48:51;97544.72;;;8.13;100.00
36598;BME280;22607;49.550;11.940;2022-11-02T06:51:18;97555.63;;;8.09;100.00
36598;BME280;22607;49.550;11.940;2022-11-02T06:53:44;97547.59;;;8.40;100.00
36598;BME280;22607;49.550;11.940;2022-11-02T06:56:10;97549.22;;;8.99;100.00
36598;BME280;22607;49.550;11.940;2022-11-02T06:58:37;97554.28;;;9.38;100.00
36598;BME280;22607;49.550;11.940;2022-11-02T07:01:05;97549.16;;;10.01;100.00
36598;BME280;22607;49.550;11.940;2022-11-02T07:03:34;97545.75;;;10.72;100.00
36598;BME280;22607;49.550;11.940;2022-11-02T07:06:02;97550.72;;;11.10;100.00
36598;BME280;22607;49.550;11.940;2022-11-02T07:08:28;97551.19;;;11.65;100.00
36598;BME280;22607;49.550;11.940;2022-11-02T07:10:56;97559.69;;;12.10;100.00
36598;BME280;22607;49.550;11.940;2022-11-02T07:13:23;97561.28;;;11.86;100.00
36598;BME280;22607;49.550;11.940;2022-11-02T07:15:50;97559.53;;;11.00;100.00
36598;BME280;22607;49.550;11.940;2022-11-02T07:18:17;97565.22;;;11.22;100.00
36598;BME280;22607;49.550;11.940;2022-11-02T07:20:43;97558.00;;;11.92;100.00
36598;BME280;22607;49.550;11.940;2022-11-02T07:23:10;97564.16;;;12.26;100.00
36598;BME280;22607;49.550;11.940;2022-11-02T07:25:36;97562.81;;;12.22;100.00
36598;BME280;22607;49.550;11.940;2022-11-02T07:28:02;97565.69;;;11.77;100.00
36598;BME280;22607;49.550;11.940;2022-11-02T07:30:30;97555.22;;;12.52;100.00
36598;BME280;22607;49.550;11.940;2022-11-02T07:32:56;97560.25;;;12.87;100.00
36598;BME280;22607;49.550;11.940;2022-11-02T07:35:23;97561.53;;;13.80;96.57
36598;BME280;22607;49.550;11.940;2022-11-02T07:37:59;97559.19;;;13.85;94.02
36598;BME280;22607;49.550;11.940;2022-11-02T07:40:27;97565.06;;;14.18;88.74
36598;BME280;22607;49.550;11.940;2022-11-02T07:42:54;97563.44;;;14.33;85.20
36598;BME280;22607;49.550;11.940;2022-11-02T07:45:20;97563.69;;;14.23;89.58
36598;BME280;22607;49.550;11.940;2022-11-02T07:47:47;97570.84;;;14.37;87.69
36598;BME280;22607;49.550;11.940;2022-11-02T07:50:15;97565.22;;;13.70;91.35
36598;BME280;22607;49.550;11.940;2022-11-02T07:52:45;97564.78;;;14.13;89.96
36598;BME280;22607;49.550;11.940;2022-11-02T07:55:12;97567.81;;;14.25;88.91
36598;BME280;22607;49.550;11.940;2022-11-02T07:57:39;97560.59;;;13.96;93.38
36598;BME280;22607;49.550;11.940;2022-11-02T08:00:06;97560.00;;;14.32;89.64
36598;BME280;22607;49.550;11.940;2022-11-02T08:02:32;97556.94;;;14.59;89.66
36598;BME280;22607;49.550;11.940;2022-11-02T08:04:59;97553.53;;;14.50;90.04
36598;BME280;22607;49.550;11.940;2022-11-02T08:07:25;97563.13;;;14.51;89.48
36598;BME280;22607;49.550;11.940;2022-11-02T08:09:51;97560.09;;;14.77;85.70
36598;BME280;22607;49.550;11.940;2022-11-02T08:12:18;97568.03;;;14.15;92.21
36598;BME280;22607;49.550;11.940;2022-11-02T08:14:44;97572.16;;;14.56;88.83
36598;BME280;22607;49.550;11.940;2022-11-02T08:17:11;97564.56;;;15.07;85.56
36598;BME280;22607;49.550;11.940;2022-11-02T08:19:37;97559.00;;;14.87;86.80
36598;BME280;22607;49.550;11.940;2022-11-02T08:22:04;97570.06;;;14.28;88.38
36598;BME280;22607;49.550;11.940;2022-11-02T08:24:30;97560.09;;;14.92;85.34
36598;BME280;22607;49.550;11.940;2022-11-02T08:26:56;97565.38;;;15.07;85.55
36598;BME280;22607;49.550;11.940;2022-11-02T08:29:23;97572.41;;;15.15;84.09
36598;BME280;22607;49.550;11.940;2022-11-02T08:31:49;97575.94;;;15.74;81.45
36598;BME280;22607;49.550;11.940;2022-11-02T08:34:15;97578.66;;;13.84;91.96
36598;BME280;22607;49.550;11.940;2022-11-02T08:36:42;97571.88;;;13.58;96.31
36598;BME280;22607;49.550;11.940;2022-11-02T08:39:08;97580.22;;;13.30;97.72
36598;BME280;22607;49.550;11.940;2022-11-02T08:41:41;97567.72;;;13.63;96.88
36598;BME280;22607;49.550;11.940;2022-11-02T08:44:07;97569.47;;;12.99;100.00
36598;BME280;22607;49.550;11.940;2022-11-02T08:46:34;97570.56;;;13.54;99.42
36598;BME280;22607;49.550;11.940;2022-11-02T08:49:00;97572.69;;;14.52;92.89
36598;BME280;22607;49.550;11.940;2022-11-02T08:51:26;97566.84;;;15.10;91.14
36598;BME280;22607;49.550;11.940;2022-11-02T08:53:53;97562.44;;;14.72;90.61
36598;BME280;22607;49.550;11.940;2022-11-02T08:56:19;97565.88;;;15.63;83.30
36598;BME280;22607;49.550;11.940;2022-11-02T08:58:46;97565.41;;;15.96;79.89
36598;BME280;22607;49.550;11.940;2022-11-02T09:01:12;97567.94;;;16.05;80.59
36598;BME280;22607;49.550;11.940;2022-11-02T09:03:39;97560.97;;;16.25;77.16
36598;BME280;22607;49.550;11.940;2022-11-02T09:06:05;97555.56;;;16.34;75.25
36598;BME280;22607;49.550;11.940;2022-11-02T09:08:31;97553.31;;;16.95;71.51
36598;BME280;22607;49.550;11.940;2022-11-02T09:10:59;97545.91;;;16.83;70.74
36598;BME280;22607;49.550;11.940;2022-11-02T09:13:26;97548.03;;;17.01;70.11
36598;BME280;22607;49.550;11.940;2022-11-02T09:15:54;97544.75;;;17.28;68.98
36598;BME280;22607;49.550;11.940;2022-11-02T09:18:21;97548.28;;;17.55;66.79
36598;BME280;22607;49.550;11.940;2022-11-02T09:20:48;97545.31;;;17.23;68.05
36598;BME280;22607;49.550;11.940;2022-11-02T09:23:15;97536.78;;;16.64;71.49
36598;BME280;22607;49.550;11.940;2022-11-02T09:25:41;97550.53;;;15.95;73.83
36598;BME280;22607;49.550;11.940;2022-11-02T09:28:08;97553.81;;;15.97;74.97
36598;BME280;22607;49.550;11.940;2022-11-02T09:30:35;97560.84;;;15.90;77.77
36598;BME280;22607;49.550;11.940;2022-11-02T09:33:02;97557.81;;;15.93;79.38
36598;BME280;22607;49.550;11.940;2022-11-02T09:35:30;97559.59;;;16.30;73.14
36598;BME280;22607;49.550;11.940;2022-11-02T09:37:57;97561.84;;;15.89;79.63
36598;BME280;22607;49.550;11.940;2022-11-02T09:40:25;97563.16;;;15.26;83.71
36598;BME280;22607;49.550;11.940;2022-11-02T09:45:21;97559.53;;;14.97;88.19
36598;BME280;22607;49.550;11.940;2022-11-02T09:48:06;97577.06;;;14.83;88.89
36598;BME280;22607;49.550;11.940;2022-11-02T09:50:45;97575.22;;;14.83;88.58
36598;BME280;22607;49.550;11.940;2022-11-02T09:53:16;97573.59;;;14.82;85.49
36598;BME280;22607;49.550;11.940;2022-11-02T09:55:47;97586.09;;;14.50;85.06
36598;BME280;22607;49.550;11.940;2022-11-02T09:58:16;97587.75;;;14.28;86.85
36598;BME280;22607;49.550;11.940;2022-11-02T10:00:44;97587.75;;;14.28;85.49
36598;BME280;22607;49.550;11.940;2022-11-02T10:05:55;97594.34;;;14.32;87.70
36598;BME280;22607;49.550;11.940;2022-11-02T10:13:37;97615.22;;;13.95;91.70
36598;BME280;22607;49.550;11.940;2022-11-02T10:16:15;97621.66;;;13.69;98.54
36598;BME280;22607;49.550;11.940;2022-11-02T10:18:43;97628.34;;;13.40;100.00
36598;BME280;22607;49.550;11.940;2022-11-02T10:24:32;97645.25;;;13.06;100.00
36598;BME280;22607;49.550;11.940;2022-11-02T10:27:00;97623.34;;;12.97;100.00
36598;BME280;22607;49.550;11.940;2022-11-02T10:31:53;97624.34;;;12.88;100.00
36598;BME280;22607;49.550;11.940;2022-11-02T10:34:23;97627.34;;;12.68;100.00
36598;BME280;22607;49.550;11.940;2022-11-02T10:39:44;97622.25;;;13.31;100.00
36598;BME280;22607;49.550;11.940;2022-11-02T10:45:15;97619.69;;;13.06;100.00
36598;BME280;22607;49.550;11.940;2022-11-02T10:47:33;97620.50;;;13.95;100.00
36598;BME280;22607;49.550;11.940;2022-11-02T10:50:19;97612.91;;;14.24;100.00
36598;BME280;22607;49.550;11.940;2022-11-02T10:52:50;97607.19;;;14.12;99.33
36598;BME280;22607;49.550;11.940;2022-11-02T10:55:28;97611.00;;;14.09;100.00
36598;BME280;22607;49.550;11.940;2022-11-02T10:57:55;97606.53;;;14.33;99.11
36598;BME280;22607;49.550;11.940;2022-11-02T11:00:29;97601.25;;;14.33;97.85
36598;BME280;22607;49.550;11.940;2022-11-02T11:05:29;97604.88;;;14.55;88.29
36598;BME280;22607;49.550;11.940;2022-11-02T11:07:55;97601.50;;;14.47;94.52
36598;BME280;22607;49.550;11.940;2022-11-02T11:10:22;97604.75;;;14.49;92.96
36598;BME280;22607;49.550;11.940;2022-11-02T11:12:49;97604.53;;;14.59;86.42
36598;BME280;22607;49.550;11.940;2022-11-02T11:15:20;97591.75;;;14.62;82.60
36598;BME280;22607;49.550;11.940;2022-11-02T11:18:08;97595.47;;;14.53;85.68
36598;BME280;22607;49.550;11.940;2022-11-02T11:20:55;97579.50;;;14.46;84.52
36598;BME280;22607;49.550;11.940;2022-11-02T11:23:23;97581.19;;;14.62;85.48
36598;BME280;22607;49.550;11.940;2022-11-02T11:25:56;97576.78;;;14.93;81.12
36598;BME280;22607;49.550;11.940;2022-11-02T11:28:27;97576.44;;;15.11;78.80
36598;BME280;22607;49.550;11.940;2022-11-02T11:31:05;97568.03;;;14.92;77.46
36598;BME280;22607;49.550;11.940;2022-11-02T11:33:32;97579.84;;;14.66;76.08
36598;BME280;22607;49.550;11.940;2022-11-02T11:36:06;97567.13;;;14.85;78.21
36598;BME280;22607;49.550;11.940;2022-11-02T11:38:33;97573.31;;;15.22;76.48
36598;BME280;22607;49.550;11.940;2022-11-02T11:41:01;97572.69;;;15.05;78.46
36598;BME280;22607;49.550;11.940;2022-11-02T11:43:29;97576.88;;;15.15;74.40
36598;BME280;22607;49.550;11.940;2022-11-02T11:46:00;97585.94;;;14.67;76.18
36598;BME280;22607;49.550;11.940;2022-11-02T11:48:36;97579.88;;;14.81;78.61
36598;BME280;22607;49.550;11.940;2022-11-02T11:51:09;97577.63;;;14.55;76.70
36598;BME280;22607;49.550;11.940;2022-11-02T11:56:35;97570.78;;;14.84;75.10
36598;BME280;22607;49.550;11.940;2022-11-02T11:59:02;97565.59;;;14.67;75.22
36598;BME280;22607;49.550;11.940;2022-11-02T12:01:36;97568.75;;;14.86;74.09
36598;BME280;22607;49.550;11.940;2022-11-02T12:04:03;97573.19;;;14.70;75.72
36598;BME280;22607;49.550;11.940;2022-11-02T12:09:40;97562.47;;;15.02;73.84
36598;BME280;22607;49.550;11.940;2022-11-02T12:12:12;97565.66;;;14.98;73.26
36598;BME280;22607;49.550;11.940;2022-11-02T12:15:04;97565.00;;;14.95;72.35
36598;BME280;22607;49.550;11.940;2022-11-02T12:17:39;97563.47;;;14.86;72.58
36598;BME280;22607;49.550;11.940;2022-11-02T12:20:18;97571.22;;;14.88;70.54
36598;BME280;22607;49.550;11.940;2022-11-02T12:22:57;97563.56;;;15.08;70.43
36598;BME280;22607;49.550;11.940;2022-11-02T12:28:09;97566.25;;;14.69;70.42
36598;BME280;22607;49.550;11.940;2022-11-02T12:36:11;97572.44;;;14.62;71.46
36598;BME280;22607;49.550;11.940;2022-11-02T12:38:50;97571.13;;;14.81;70.06
36598;BME280;22607;49.550;11.940;2022-11-02T12:44:17;97564.28;;;14.33;69.28
36598;BME280;22607;49.550;11.940;2022-11-02T12:54:47;97566.25;;;14.31;67.70
36598;BME280;22607;49.550;11.940;2022-11-02T12:57:15;97573.75;;;14.04;69.85
36598;BME280;22607;49.550;11.940;2022-11-02T12:59:43;97571.75;;;14.06;71.13
36598;BME280;22607;49.550;11.940;2022-11-02T13:02:12;97576.91;;;14.23;71.26
36598;BME280;22607;49.550;11.940;2022-11-02T13:04:49;97577.47;;;14.33;70.53
36598;BME280;22607;49.550;11.940;2022-11-02T13:07:19;97581.41;;;14.37;70.10
36598;BME280;22607;49.550;11.940;2022-11-02T13:09:52;97576.19;;;14.29;69.99
36598;BME280;22607;49.550;11.940;2022-11-02T13:12:20;97577.53;;;14.25;71.96
36598;BME280;22607;49.550;11.940;2022-11-02T13:14:49;97563.75;;;14.14;71.02
36598;BME280;22607;49.550;11.940;2022-11-02T13:17:29;97561.34;;;14.28;69.29
36598;BME280;22607;49.550;11.940;2022-11-02T13:20:02;97547.75;;;14.16;69.81
36598;BME280;22607;49.550;11.940;2022-11-02T13:22:34;97550.72;;;14.36;68.53
36598;BME280;22607;49.550;11.940;2022-11-02T13:25:25;97543.03;;;14.26;69.09
36598;BME280;22607;49.550;11.940;2022-11-02T13:27:54;97541.94;;;14.36;70.98
36598;BME280;22607;49.550;11.940;2022-11-02T13:30:29;97549.59;;;14.07;70.91
36598;BME280;22607;49.550;11.940;2022-11-02T13:32:57;97547.69;;;14.39;70.14
36598;BME280;22607;49.550;11.940;2022-11-02T13:35:26;97546.28;;;14.13;69.26
36598;BME280;22607;49.550;11.940;2022-11-02T13:38:19;97549.84;;;14.21;69.36
36598;BME280;22607;49.550;11.940;2022-11-02T13:40:53;97558.13;;;14.17;69.82
36598;BME280;22607;49.550;11.940;2022-11-02T13:54:02;97544.41;;;14.37;68.57
36598;BME280;22607;49.550;11.940;2022-11-02T13:56:30;97538.06;;;14.47;64.65
36598;BME280;22607;49.550;11.940;2022-11-02T13:59:19;97553.13;;;14.23;65.80
36598;BME280;22607;49.550;11.940;2022-11-02T14:01:46;97556.19;;;14.11;66.51
36598;BME280;22607;49.550;11.940;2022-11-02T14:04:17;97556.75;;;14.22;65.46
36598;BME280;22607;49.550;11.940;2022-11-02T14:06:57;97564.00;;;14.04;63.88
36598;BME280;22607;49.550;11.940;2022-11-02T14:09:28;97554.53;;;14.10;62.38
36598;BME280;22607;49.550;11.940;2022-11-02T14:12:11;97565.06;;;14.18;62.20
36598;BME280;22607;49.550;11.940;2022-11-02T14:14:38;97556.03;;;13.89;62.71
36598;BME280;22607;49.550;11.940;2022-11-02T14:17:11;97548.56;;;13.93;62.00
36598;BME280;22607;49.550;11.940;2022-11-02T14:22:17;97544.94;;;14.17;61.86